BEE103 EGAA-EGTE
Flight info
| Callsign | BEE103 |
|---|---|
| Flight time | 1h 17m |
| Altitude | 23000 |
| Route | LISBO L603 PEPOD Q38 MALUD L15 RISLA N862 PACSE N92 EXMOR DCT TIVER |
| Aircraft | DH8D/M-SDE2E3FGRY/H |
Departure
| Time | 2026-04-21 07:10 |
|---|---|
| Airport | Belfast International Airport (EGAA) |
Arrival
| Time | 2026-04-21 08:28 |
|---|---|
| Airport | Exeter International Airport (EGTE) |
| Time | Latitude | Longitude | Altitude | Speed | Heading |
|---|---|---|---|---|---|
| 2026-04-21 06:51 | 54.66074 | -6.21664 | 276 ft | 0 kts | 333° |
| 2026-04-21 06:59 | 54.66073 | -6.21664 | 276 ft | 0 kts | 333° |
| 2026-04-21 07:00 | 54.66062 | -6.21654 | 276 ft | 3 kts | 333° |
| 2026-04-21 07:00 | 54.66043 | -6.21639 | 276 ft | 3 kts | 333° |
| 2026-04-21 07:00 | 54.66025 | -6.21624 | 276 ft | 3 kts | 334° |
| 2026-04-21 07:00 | 54.66007 | -6.21609 | 276 ft | 3 kts | 334° |
| 2026-04-21 07:01 | 54.65989 | -6.21594 | 277 ft | 3 kts | 334° |
| 2026-04-21 07:01 | 54.65971 | -6.21577 | 277 ft | 3 kts | 328° |
| 2026-04-21 07:01 | 54.65942 | -6.21544 | 277 ft | 1 kts | 326° |
| 2026-04-21 07:02 | 54.65939 | -6.21540 | 276 ft | 0 kts | 326° |
| 2026-04-21 07:05 | 54.65945 | -6.21563 | 276 ft | 6 kts | 271° |
| 2026-04-21 07:06 | 54.65925 | -6.21639 | 276 ft | 8 kts | 242° |
| 2026-04-21 07:06 | 54.65894 | -6.21740 | 276 ft | 11 kts | 242° |
| 2026-04-21 07:06 | 54.65858 | -6.21868 | 276 ft | 13 kts | 245° |
| 2026-04-21 07:06 | 54.65816 | -6.22022 | 276 ft | 15 kts | 244° |
| 2026-04-21 07:07 | 54.65776 | -6.22201 | 276 ft | 17 kts | 257° |
| 2026-04-21 07:07 | 54.65759 | -6.22410 | 276 ft | 19 kts | 263° |
| 2026-04-21 07:07 | 54.65746 | -6.22641 | 276 ft | 20 kts | 266° |
| 2026-04-21 07:07 | 54.65714 | -6.22880 | 276 ft | 21 kts | 242° |
| 2026-04-21 07:08 | 54.65629 | -6.23092 | 276 ft | 22 kts | 233° |
| 2026-04-21 07:08 | 54.65534 | -6.23310 | 276 ft | 23 kts | 220° |
| 2026-04-21 07:08 | 54.65418 | -6.23400 | 276 ft | 11 kts | 193° |
| 2026-04-21 07:08 | 54.65361 | -6.23390 | 276 ft | 6 kts | 163° |
| 2026-04-21 07:09 | 54.65330 | -6.23372 | 276 ft | 5 kts | 160° |
| 2026-04-21 07:09 | 54.65301 | -6.23347 | 276 ft | 5 kts | 137° |
| 2026-04-21 07:09 | 54.65293 | -6.23294 | 276 ft | 5 kts | 84° |
| 2026-04-21 07:09 | 54.65300 | -6.23256 | 276 ft | 0 kts | 65° |
| 2026-04-21 07:10 | 54.65300 | -6.23255 | 276 ft | 2 kts | 65° |
| 2026-04-21 07:10 | 54.65401 | -6.22882 | 276 ft | 75 kts | 65° |
| 2026-04-21 07:10 | 54.65714 | -6.21739 | 299 ft | 134 kts | 62° |
| 2026-04-21 07:10 | 54.66073 | -6.20299 | 1030 ft | 123 kts | 80° |
| 2026-04-21 07:11 | 54.65887 | -6.18938 | 1742 ft | 125 kts | 115° |
| 2026-04-21 07:11 | 54.65540 | -6.18118 | 2066 ft | 130 kts | 129° |
| 2026-04-21 07:11 | 54.64780 | -6.17262 | 2736 ft | 137 kts | 150° |
| 2026-04-21 07:11 | 54.63747 | -6.17082 | 3027 ft | 178 kts | 181° |
| 2026-04-21 07:12 | 54.62409 | -6.17354 | 2905 ft | 215 kts | 170° |
| 2026-04-21 07:12 | 54.61030 | -6.16929 | 3669 ft | 204 kts | 159° |
| 2026-04-21 07:12 | 54.59705 | -6.16260 | 4431 ft | 200 kts | 158° |
| 2026-04-21 07:12 | 54.58417 | -6.15565 | 5135 ft | 199 kts | 157° |
| 2026-04-21 07:13 | 54.57161 | -6.14860 | 5796 ft | 199 kts | 156° |
| 2026-04-21 07:13 | 54.55893 | -6.14132 | 6441 ft | 201 kts | 156° |
| 2026-04-21 07:13 | 54.54692 | -6.13137 | 7069 ft | 200 kts | 139° |
| 2026-04-21 07:13 | 54.53732 | -6.11481 | 7684 ft | 202 kts | 128° |
| 2026-04-21 07:14 | 54.52850 | -6.09653 | 8304 ft | 205 kts | 127° |
| 2026-04-21 07:14 | 54.51947 | -6.07770 | 8927 ft | 208 kts | 127° |
| 2026-04-21 07:14 | 54.51025 | -6.05848 | 9551 ft | 210 kts | 128° |
| 2026-04-21 07:14 | 54.50095 | -6.03917 | 10159 ft | 213 kts | 127° |
| 2026-04-21 07:15 | 54.49189 | -6.02036 | 10733 ft | 215 kts | 128° |
| 2026-04-21 07:15 | 54.48251 | -6.00093 | 11315 ft | 218 kts | 128° |
| 2026-04-21 07:15 | 54.47293 | -5.98110 | 11895 ft | 220 kts | 128° |
| 2026-04-21 07:15 | 54.46353 | -5.96169 | 12443 ft | 223 kts | 128° |
| 2026-04-21 07:16 | 54.45393 | -5.94183 | 12994 ft | 226 kts | 128° |
| 2026-04-21 07:16 | 54.44433 | -5.92201 | 13526 ft | 228 kts | 128° |
| 2026-04-21 07:16 | 54.43467 | -5.90207 | 14066 ft | 231 kts | 128° |
| 2026-04-21 07:16 | 54.42498 | -5.88205 | 14586 ft | 234 kts | 129° |
| 2026-04-21 07:17 | 54.41513 | -5.86177 | 15117 ft | 236 kts | 129° |
| 2026-04-21 07:17 | 54.40536 | -5.84164 | 15646 ft | 238 kts | 129° |
| 2026-04-21 07:17 | 54.39542 | -5.82118 | 16177 ft | 241 kts | 129° |
| 2026-04-21 07:17 | 54.38539 | -5.80058 | 16705 ft | 243 kts | 129° |
| 2026-04-21 07:18 | 54.37509 | -5.77947 | 17241 ft | 246 kts | 129° |
| 2026-04-21 07:18 | 54.36492 | -5.75866 | 17763 ft | 249 kts | 129° |
| 2026-04-21 07:18 | 54.35487 | -5.73814 | 18273 ft | 251 kts | 130° |
| 2026-04-21 07:18 | 54.34459 | -5.71719 | 18778 ft | 255 kts | 130° |
| 2026-04-21 07:19 | 54.33405 | -5.69576 | 19273 ft | 258 kts | 130° |
| 2026-04-21 07:19 | 54.32332 | -5.67409 | 19776 ft | 262 kts | 130° |
| 2026-04-21 07:19 | 54.31255 | -5.65227 | 20278 ft | 265 kts | 130° |
| 2026-04-21 07:19 | 54.30179 | -5.63053 | 20771 ft | 269 kts | 130° |
| 2026-04-21 07:20 | 54.29078 | -5.60836 | 21267 ft | 272 kts | 130° |
| 2026-04-21 07:20 | 54.27951 | -5.58572 | 21764 ft | 275 kts | 130° |
| 2026-04-21 07:20 | 54.26860 | -5.56352 | 22238 ft | 278 kts | 129° |
| 2026-04-21 07:20 | 54.25792 | -5.53991 | 22599 ft | 278 kts | 127° |
| 2026-04-21 07:21 | 54.24760 | -5.51561 | 22767 ft | 282 kts | 126° |
| 2026-04-21 07:21 | 54.23743 | -5.49105 | 22945 ft | 285 kts | 126° |
| 2026-04-21 07:21 | 54.22711 | -5.46592 | 23153 ft | 286 kts | 125° |
| 2026-04-21 07:21 | 54.21675 | -5.44074 | 23304 ft | 290 kts | 126° |
| 2026-04-21 07:22 | 54.20597 | -5.41479 | 23372 ft | 296 kts | 126° |
| 2026-04-21 07:22 | 54.19517 | -5.38899 | 23414 ft | 303 kts | 126° |
| 2026-04-21 07:22 | 54.18400 | -5.36251 | 23430 ft | 309 kts | 126° |
| 2026-04-21 07:22 | 54.17283 | -5.33622 | 23436 ft | 315 kts | 126° |
| 2026-04-21 07:23 | 54.16156 | -5.30974 | 23439 ft | 320 kts | 126° |
| 2026-04-21 07:23 | 54.15014 | -5.28300 | 23439 ft | 325 kts | 126° |
| 2026-04-21 07:23 | 54.13840 | -5.25547 | 23438 ft | 329 kts | 126° |
| 2026-04-21 07:23 | 54.12681 | -5.22834 | 23437 ft | 333 kts | 126° |
| 2026-04-21 07:24 | 54.11512 | -5.20094 | 23437 ft | 336 kts | 126° |
| 2026-04-21 07:24 | 54.10316 | -5.17292 | 23436 ft | 339 kts | 126° |
| 2026-04-21 07:24 | 54.09131 | -5.14520 | 23435 ft | 341 kts | 126° |
| 2026-04-21 07:24 | 54.07900 | -5.11641 | 23434 ft | 343 kts | 126° |
| 2026-04-21 07:25 | 54.06687 | -5.08804 | 23431 ft | 345 kts | 126° |
| 2026-04-21 07:25 | 54.05419 | -5.05842 | 23428 ft | 344 kts | 126° |
| 2026-04-21 07:25 | 54.04181 | -5.02962 | 23428 ft | 343 kts | 126° |
| 2026-04-21 07:25 | 54.02978 | -5.00164 | 23427 ft | 342 kts | 126° |
| 2026-04-21 07:26 | 54.01754 | -4.97315 | 23427 ft | 342 kts | 126° |
| 2026-04-21 07:26 | 54.00510 | -4.94423 | 23427 ft | 341 kts | 126° |
| 2026-04-21 07:26 | 53.99289 | -4.91587 | 23427 ft | 340 kts | 127° |
| 2026-04-21 07:26 | 53.98072 | -4.88700 | 23425 ft | 341 kts | 126° |
| 2026-04-21 07:27 | 53.96848 | -4.85824 | 23426 ft | 341 kts | 127° |
| 2026-04-21 07:27 | 53.95552 | -4.82884 | 23427 ft | 342 kts | 128° |
| 2026-04-21 07:27 | 53.94268 | -4.79983 | 23427 ft | 342 kts | 127° |
| 2026-04-21 07:27 | 53.92975 | -4.77046 | 23427 ft | 343 kts | 127° |
| 2026-04-21 07:28 | 53.91720 | -4.74175 | 23427 ft | 343 kts | 127° |
| 2026-04-21 07:28 | 53.90480 | -4.71322 | 23427 ft | 344 kts | 127° |
| 2026-04-21 07:28 | 53.89214 | -4.68405 | 23427 ft | 344 kts | 127° |
| 2026-04-21 07:28 | 53.87943 | -4.65479 | 23426 ft | 344 kts | 127° |
| 2026-04-21 07:29 | 53.86694 | -4.62609 | 23426 ft | 344 kts | 127° |
| 2026-04-21 07:29 | 53.85447 | -4.59755 | 23426 ft | 344 kts | 127° |
| 2026-04-21 07:29 | 53.84204 | -4.56914 | 23426 ft | 344 kts | 127° |
| 2026-04-21 07:29 | 53.82959 | -4.54073 | 23425 ft | 344 kts | 127° |
| 2026-04-21 07:30 | 53.81719 | -4.51248 | 23424 ft | 344 kts | 127° |
| 2026-04-21 07:30 | 53.80451 | -4.48362 | 23423 ft | 344 kts | 127° |
| 2026-04-21 07:30 | 53.79194 | -4.45501 | 23422 ft | 343 kts | 127° |
| 2026-04-21 07:30 | 53.77946 | -4.42664 | 23421 ft | 343 kts | 127° |
| 2026-04-21 07:31 | 53.76705 | -4.39850 | 23420 ft | 343 kts | 127° |
| 2026-04-21 07:31 | 53.75458 | -4.37026 | 23419 ft | 343 kts | 127° |
| 2026-04-21 07:31 | 53.74233 | -4.34249 | 23418 ft | 343 kts | 127° |
| 2026-04-21 07:31 | 53.73075 | -4.31623 | 23418 ft | 342 kts | 126° |
| 2026-04-21 07:32 | 53.71859 | -4.28870 | 23419 ft | 342 kts | 127° |
| 2026-04-21 07:32 | 53.70633 | -4.26101 | 23420 ft | 342 kts | 127° |
| 2026-04-21 07:32 | 53.69432 | -4.23389 | 23419 ft | 342 kts | 127° |
| 2026-04-21 07:32 | 53.68264 | -4.20755 | 23419 ft | 341 kts | 127° |
| 2026-04-21 07:33 | 53.67023 | -4.17959 | 23419 ft | 341 kts | 127° |
| 2026-04-21 07:33 | 53.65818 | -4.15249 | 23419 ft | 341 kts | 127° |
| 2026-04-21 07:33 | 53.64575 | -4.12458 | 23418 ft | 341 kts | 127° |
| 2026-04-21 07:33 | 53.63342 | -4.09692 | 23418 ft | 341 kts | 127° |
| 2026-04-21 07:34 | 53.62094 | -4.06897 | 23418 ft | 341 kts | 127° |
| 2026-04-21 07:34 | 53.60867 | -4.04153 | 23419 ft | 341 kts | 127° |
| 2026-04-21 07:34 | 53.59631 | -4.01390 | 23419 ft | 340 kts | 127° |
| 2026-04-21 07:34 | 53.58336 | -3.98498 | 23420 ft | 340 kts | 127° |
| 2026-04-21 07:35 | 53.57088 | -3.95721 | 23417 ft | 340 kts | 127° |
| 2026-04-21 07:35 | 53.55835 | -3.92932 | 23416 ft | 340 kts | 127° |
| 2026-04-21 07:35 | 53.54565 | -3.90103 | 23415 ft | 340 kts | 127° |
| 2026-04-21 07:35 | 53.53263 | -3.87206 | 23415 ft | 340 kts | 127° |
| 2026-04-21 07:36 | 53.51991 | -3.84374 | 23415 ft | 340 kts | 127° |
| 2026-04-21 07:36 | 53.50752 | -3.81619 | 23415 ft | 340 kts | 127° |
| 2026-04-21 07:36 | 53.49527 | -3.78905 | 23414 ft | 341 kts | 127° |
| 2026-04-21 07:36 | 53.48269 | -3.76117 | 23415 ft | 341 kts | 127° |
| 2026-04-21 07:37 | 53.47003 | -3.73319 | 23414 ft | 341 kts | 127° |
| 2026-04-21 07:37 | 53.45763 | -3.70580 | 23415 ft | 341 kts | 127° |
| 2026-04-21 07:37 | 53.44524 | -3.67848 | 23414 ft | 342 kts | 127° |
| 2026-04-21 07:37 | 53.43293 | -3.65135 | 23415 ft | 342 kts | 127° |
| 2026-04-21 07:38 | 53.42009 | -3.62310 | 23414 ft | 342 kts | 127° |
| 2026-04-21 07:38 | 53.40718 | -3.59508 | 23414 ft | 343 kts | 128° |
| 2026-04-21 07:38 | 53.39363 | -3.56762 | 23414 ft | 343 kts | 130° |
| 2026-04-21 07:38 | 53.37943 | -3.54044 | 23415 ft | 343 kts | 132° |
| 2026-04-21 07:39 | 53.36520 | -3.51408 | 23414 ft | 344 kts | 133° |
| 2026-04-21 07:39 | 53.35013 | -3.48643 | 23414 ft | 344 kts | 133° |
| 2026-04-21 07:39 | 53.33564 | -3.45967 | 23414 ft | 344 kts | 132° |
| 2026-04-21 07:39 | 53.32098 | -3.43227 | 23413 ft | 345 kts | 132° |
| 2026-04-21 07:40 | 53.30680 | -3.40551 | 23413 ft | 345 kts | 131° |
| 2026-04-21 07:40 | 53.29400 | -3.38120 | 23413 ft | 346 kts | 131° |
| 2026-04-21 07:40 | 53.28001 | -3.35454 | 23412 ft | 346 kts | 131° |
| 2026-04-21 07:40 | 53.26577 | -3.32743 | 23411 ft | 347 kts | 131° |
| 2026-04-21 07:41 | 53.25222 | -3.30167 | 23410 ft | 347 kts | 131° |
| 2026-04-21 07:41 | 53.23796 | -3.27466 | 23408 ft | 348 kts | 131° |
| 2026-04-21 07:41 | 53.22349 | -3.24734 | 23407 ft | 348 kts | 131° |
| 2026-04-21 07:41 | 53.20846 | -3.21903 | 23408 ft | 349 kts | 132° |
| 2026-04-21 07:42 | 53.19333 | -3.19090 | 23402 ft | 349 kts | 135° |
| 2026-04-21 07:42 | 53.17525 | -3.16792 | 23405 ft | 347 kts | 152° |
| 2026-04-21 07:42 | 53.15557 | -3.15297 | 23410 ft | 346 kts | 160° |
| 2026-04-21 07:42 | 53.13515 | -3.13972 | 23406 ft | 348 kts | 160° |
| 2026-04-21 07:43 | 53.11446 | -3.12623 | 23403 ft | 349 kts | 160° |
| 2026-04-21 07:43 | 53.09395 | -3.11270 | 23402 ft | 350 kts | 160° |
| 2026-04-21 07:43 | 53.07474 | -3.09998 | 23402 ft | 351 kts | 160° |
| 2026-04-21 07:43 | 53.05390 | -3.08616 | 23401 ft | 352 kts | 160° |
| 2026-04-21 07:44 | 53.03282 | -3.07217 | 23401 ft | 353 kts | 160° |
| 2026-04-21 07:44 | 53.01247 | -3.05866 | 23401 ft | 354 kts | 160° |
| 2026-04-21 07:44 | 52.99185 | -3.04498 | 23401 ft | 354 kts | 160° |
| 2026-04-21 07:44 | 52.97111 | -3.03122 | 23401 ft | 355 kts | 160° |
| 2026-04-21 07:45 | 52.95084 | -3.01781 | 23401 ft | 355 kts | 160° |
| 2026-04-21 07:45 | 52.93013 | -3.00410 | 23402 ft | 355 kts | 160° |
| 2026-04-21 07:45 | 52.90979 | -2.99068 | 23402 ft | 356 kts | 160° |
| 2026-04-21 07:45 | 52.89090 | -2.97822 | 23402 ft | 356 kts | 160° |
| 2026-04-21 07:46 | 52.87080 | -2.96500 | 23402 ft | 356 kts | 160° |
| 2026-04-21 07:46 | 52.84992 | -2.95130 | 23402 ft | 357 kts | 160° |
| 2026-04-21 07:46 | 52.82824 | -2.93711 | 23402 ft | 357 kts | 161° |
| 2026-04-21 07:46 | 52.80716 | -2.92641 | 23398 ft | 354 kts | 171° |
| 2026-04-21 07:47 | 52.78555 | -2.92340 | 23402 ft | 349 kts | 184° |
| 2026-04-21 07:47 | 52.76428 | -2.92669 | 23403 ft | 346 kts | 192° |
| 2026-04-21 07:47 | 52.74274 | -2.93245 | 23402 ft | 346 kts | 193° |
| 2026-04-21 07:47 | 52.72157 | -2.93835 | 23400 ft | 346 kts | 193° |
| 2026-04-21 07:48 | 52.70006 | -2.94312 | 23399 ft | 349 kts | 189° |
| 2026-04-21 07:48 | 52.67808 | -2.94564 | 23398 ft | 350 kts | 186° |
| 2026-04-21 07:48 | 52.65626 | -2.94715 | 23398 ft | 351 kts | 186° |
| 2026-04-21 07:48 | 52.63544 | -2.94827 | 23397 ft | 351 kts | 185° |
| 2026-04-21 07:49 | 52.61448 | -2.94946 | 23396 ft | 351 kts | 186° |
| 2026-04-21 07:49 | 52.59345 | -2.95080 | 23396 ft | 351 kts | 186° |
| 2026-04-21 07:49 | 52.57199 | -2.95240 | 23395 ft | 351 kts | 186° |
| 2026-04-21 07:49 | 52.55429 | -2.95385 | 23394 ft | 351 kts | 187° |
| 2026-04-21 07:50 | 52.53321 | -2.95565 | 23393 ft | 351 kts | 187° |
| 2026-04-21 07:50 | 52.51185 | -2.95753 | 23392 ft | 352 kts | 187° |
| 2026-04-21 07:50 | 52.49078 | -2.95934 | 23391 ft | 352 kts | 187° |
| 2026-04-21 07:50 | 52.47003 | -2.96108 | 23390 ft | 352 kts | 187° |
| 2026-04-21 07:51 | 52.44797 | -2.96294 | 23388 ft | 352 kts | 187° |
| 2026-04-21 07:51 | 52.42611 | -2.96473 | 23387 ft | 352 kts | 187° |
| 2026-04-21 07:51 | 52.40404 | -2.96652 | 23385 ft | 352 kts | 187° |
| 2026-04-21 07:51 | 52.38255 | -2.96829 | 23384 ft | 352 kts | 187° |
| 2026-04-21 07:52 | 52.36271 | -2.96992 | 23382 ft | 353 kts | 187° |
| 2026-04-21 07:52 | 52.34106 | -2.97166 | 23381 ft | 353 kts | 187° |
| 2026-04-21 07:52 | 52.31946 | -2.97343 | 23379 ft | 353 kts | 187° |
| 2026-04-21 07:52 | 52.29819 | -2.97520 | 23377 ft | 353 kts | 187° |
| 2026-04-21 07:53 | 52.27620 | -2.97698 | 23375 ft | 353 kts | 187° |
| 2026-04-21 07:53 | 52.25494 | -2.97870 | 23372 ft | 353 kts | 187° |
| 2026-04-21 07:53 | 52.23222 | -2.98057 | 23371 ft | 353 kts | 187° |
| 2026-04-21 07:53 | 52.21039 | -2.98238 | 23370 ft | 353 kts | 187° |
| 2026-04-21 07:54 | 52.18901 | -2.98412 | 23368 ft | 353 kts | 187° |
| 2026-04-21 07:54 | 52.16697 | -2.98587 | 23366 ft | 353 kts | 187° |
| 2026-04-21 07:54 | 52.14501 | -2.98764 | 23363 ft | 353 kts | 187° |
| 2026-04-21 07:54 | 52.12452 | -2.98933 | 23361 ft | 353 kts | 188° |
| 2026-04-21 07:55 | 52.10255 | -2.99114 | 23359 ft | 354 kts | 188° |
| 2026-04-21 07:55 | 52.08034 | -2.99296 | 23356 ft | 354 kts | 188° |
| 2026-04-21 07:55 | 52.05840 | -2.99469 | 23354 ft | 354 kts | 188° |
| 2026-04-21 07:55 | 52.03645 | -2.99643 | 23352 ft | 354 kts | 188° |
| 2026-04-21 07:56 | 52.01515 | -2.99815 | 23350 ft | 354 kts | 188° |
| 2026-04-21 07:56 | 51.99349 | -2.99994 | 23348 ft | 354 kts | 188° |
| 2026-04-21 07:56 | 51.97184 | -3.00154 | 23346 ft | 355 kts | 188° |
| 2026-04-21 07:56 | 51.94982 | -3.00291 | 23344 ft | 355 kts | 188° |
| 2026-04-21 07:57 | 51.92785 | -3.00457 | 23342 ft | 354 kts | 189° |
| 2026-04-21 07:57 | 51.90587 | -3.00650 | 23340 ft | 354 kts | 189° |
| 2026-04-21 07:57 | 51.88337 | -3.00856 | 23338 ft | 354 kts | 189° |
| 2026-04-21 07:57 | 51.86156 | -3.01130 | 23335 ft | 352 kts | 192° |
| 2026-04-21 07:58 | 51.83978 | -3.01547 | 23334 ft | 351 kts | 193° |
| 2026-04-21 07:58 | 51.81775 | -3.02049 | 23333 ft | 351 kts | 194° |
| 2026-04-21 07:58 | 51.79598 | -3.02577 | 23331 ft | 351 kts | 195° |
| 2026-04-21 07:58 | 51.77388 | -3.03107 | 23331 ft | 351 kts | 194° |
| 2026-04-21 07:59 | 51.75962 | -3.03436 | 23330 ft | 351 kts | 194° |
| 2026-04-21 07:59 | 51.73723 | -3.03928 | 23329 ft | 351 kts | 194° |
| 2026-04-21 07:59 | 51.71466 | -3.04401 | 23328 ft | 352 kts | 193° |
| 2026-04-21 07:59 | 51.68487 | -3.05007 | 23325 ft | 352 kts | 193° |
| 2026-04-21 08:00 | 51.66965 | -3.05315 | 23323 ft | 352 kts | 193° |
| 2026-04-21 08:00 | 51.63957 | -3.05928 | 23322 ft | 352 kts | 193° |
| 2026-04-21 08:00 | 51.62450 | -3.06237 | 23307 ft | 346 kts | 194° |
| 2026-04-21 08:00 | 51.60264 | -3.06678 | 23313 ft | 337 kts | 194° |
| 2026-04-21 08:01 | 51.58126 | -3.07109 | 23316 ft | 330 kts | 194° |
| 2026-04-21 08:01 | 51.55328 | -3.07682 | 23316 ft | 321 kts | 194° |
| 2026-04-21 08:01 | 51.53955 | -3.07966 | 23316 ft | 316 kts | 194° |
| 2026-04-21 08:02 | 51.50088 | -3.08769 | 23316 ft | 304 kts | 195° |
| 2026-04-21 08:02 | 51.48161 | -3.09168 | 23316 ft | 298 kts | 195° |
| 2026-04-21 08:02 | 51.46283 | -3.09556 | 23316 ft | 292 kts | 195° |
| 2026-04-21 08:02 | 51.44446 | -3.09935 | 23316 ft | 286 kts | 195° |
| 2026-04-21 08:03 | 51.42624 | -3.10309 | 23316 ft | 281 kts | 195° |
| 2026-04-21 08:03 | 51.40831 | -3.10677 | 23319 ft | 276 kts | 195° |
| 2026-04-21 08:03 | 51.39056 | -3.11067 | 23317 ft | 271 kts | 199° |
| 2026-04-21 08:03 | 51.37412 | -3.11891 | 23317 ft | 258 kts | 214° |
| 2026-04-21 08:04 | 51.36000 | -3.13264 | 23321 ft | 252 kts | 224° |
| 2026-04-21 08:04 | 51.34740 | -3.14804 | 23319 ft | 250 kts | 226° |
| 2026-04-21 08:04 | 51.33471 | -3.16403 | 23318 ft | 249 kts | 226° |
| 2026-04-21 08:04 | 51.32215 | -3.17983 | 23318 ft | 249 kts | 226° |
| 2026-04-21 08:05 | 51.30953 | -3.19564 | 23317 ft | 248 kts | 226° |
| 2026-04-21 08:05 | 51.29691 | -3.21146 | 23317 ft | 247 kts | 226° |
| 2026-04-21 08:05 | 51.28424 | -3.22736 | 23317 ft | 247 kts | 226° |
| 2026-04-21 08:05 | 51.27177 | -3.24301 | 23140 ft | 255 kts | 226° |
| 2026-04-21 08:06 | 51.25894 | -3.25935 | 22700 ft | 272 kts | 226° |
| 2026-04-21 08:06 | 51.24387 | -3.27519 | 22245 ft | 295 kts | 212° |
| 2026-04-21 08:06 | 51.22593 | -3.28463 | 21856 ft | 315 kts | 200° |
| 2026-04-21 08:06 | 51.20570 | -3.29170 | 21480 ft | 325 kts | 198° |
| 2026-04-21 08:07 | 51.18511 | -3.29864 | 21123 ft | 332 kts | 198° |
| 2026-04-21 08:07 | 51.16426 | -3.30582 | 20780 ft | 336 kts | 198° |
| 2026-04-21 08:07 | 51.14287 | -3.31324 | 20443 ft | 340 kts | 197° |
| 2026-04-21 08:07 | 51.12139 | -3.32066 | 20117 ft | 343 kts | 197° |
| 2026-04-21 08:08 | 51.09964 | -3.32814 | 19798 ft | 345 kts | 197° |
| 2026-04-21 08:08 | 51.07769 | -3.33564 | 19484 ft | 347 kts | 196° |
| 2026-04-21 08:08 | 51.05592 | -3.34305 | 19181 ft | 348 kts | 196° |
| 2026-04-21 08:08 | 51.03395 | -3.35048 | 18881 ft | 348 kts | 196° |
| 2026-04-21 08:09 | 51.01230 | -3.35778 | 18591 ft | 349 kts | 195° |
| 2026-04-21 08:09 | 50.99151 | -3.36475 | 18317 ft | 349 kts | 195° |
| 2026-04-21 08:09 | 50.96882 | -3.37224 | 18023 ft | 349 kts | 195° |
| 2026-04-21 08:09 | 50.94664 | -3.37953 | 17740 ft | 348 kts | 195° |
| 2026-04-21 08:10 | 50.92416 | -3.38691 | 17457 ft | 348 kts | 195° |
| 2026-04-21 08:10 | 50.90368 | -3.39362 | 17201 ft | 347 kts | 195° |
| 2026-04-21 08:10 | 50.88343 | -3.40022 | 16951 ft | 347 kts | 194° |
| 2026-04-21 08:10 | 50.86238 | -3.40704 | 16695 ft | 346 kts | 194° |
| 2026-04-21 08:11 | 50.83922 | -3.41505 | 16390 ft | 343 kts | 198° |
| 2026-04-21 08:11 | 50.81937 | -3.42826 | 16015 ft | 331 kts | 214° |
| 2026-04-21 08:11 | 50.80288 | -3.45043 | 15627 ft | 319 kts | 230° |
| 2026-04-21 08:11 | 50.79049 | -3.47616 | 15263 ft | 310 kts | 238° |
| 2026-04-21 08:12 | 50.77954 | -3.50338 | 14892 ft | 303 kts | 240° |
| 2026-04-21 08:12 | 50.76922 | -3.53043 | 14514 ft | 297 kts | 241° |
| 2026-04-21 08:12 | 50.76084 | -3.55822 | 14109 ft | 290 kts | 253° |
| 2026-04-21 08:12 | 50.75688 | -3.58752 | 13717 ft | 285 kts | 262° |
| 2026-04-21 08:13 | 50.75420 | -3.61763 | 13319 ft | 281 kts | 263° |
| 2026-04-21 08:13 | 50.75170 | -3.64550 | 12942 ft | 277 kts | 262° |
| 2026-04-21 08:13 | 50.74921 | -3.67258 | 12569 ft | 275 kts | 262° |
| 2026-04-21 08:13 | 50.74665 | -3.70025 | 12184 ft | 272 kts | 262° |
| 2026-04-21 08:14 | 50.74409 | -3.72792 | 11795 ft | 271 kts | 262° |
| 2026-04-21 08:14 | 50.74173 | -3.75371 | 11429 ft | 269 kts | 262° |
| 2026-04-21 08:14 | 50.73925 | -3.78089 | 11041 ft | 268 kts | 262° |
| 2026-04-21 08:14 | 50.73682 | -3.80795 | 10654 ft | 267 kts | 262° |
| 2026-04-21 08:15 | 50.73441 | -3.83488 | 10095 ft | 267 kts | 262° |
| 2026-04-21 08:15 | 50.73163 | -3.86177 | 9486 ft | 265 kts | 259° |
| 2026-04-21 08:15 | 50.72730 | -3.88757 | 8887 ft | 265 kts | 254° |
| 2026-04-21 08:15 | 50.72238 | -3.91343 | 8280 ft | 265 kts | 253° |
| 2026-04-21 08:16 | 50.71748 | -3.94028 | 7652 ft | 265 kts | 253° |
| 2026-04-21 08:16 | 50.71297 | -3.96569 | 7059 ft | 264 kts | 253° |
| 2026-04-21 08:16 | 50.70853 | -3.99081 | 6471 ft | 264 kts | 253° |
| 2026-04-21 08:16 | 50.70335 | -4.01605 | 5863 ft | 262 kts | 241° |
| 2026-04-21 08:17 | 50.69271 | -4.03642 | 5318 ft | 250 kts | 211° |
| 2026-04-21 08:17 | 50.67814 | -4.04578 | 4986 ft | 225 kts | 180° |
| 2026-04-21 08:17 | 50.66470 | -4.04261 | 4805 ft | 205 kts | 149° |
| 2026-04-21 08:17 | 50.65505 | -4.02917 | 4661 ft | 192 kts | 118° |
| 2026-04-21 08:18 | 50.65202 | -4.01049 | 4524 ft | 187 kts | 90° |
| 2026-04-21 08:18 | 50.65328 | -3.99207 | 4391 ft | 185 kts | 82° |
| 2026-04-21 08:18 | 50.65523 | -3.97315 | 4248 ft | 183 kts | 82° |
| 2026-04-21 08:18 | 50.65708 | -3.95503 | 4108 ft | 182 kts | 82° |
| 2026-04-21 08:19 | 50.65899 | -3.93662 | 3967 ft | 181 kts | 82° |
| 2026-04-21 08:19 | 50.66098 | -3.91787 | 3824 ft | 180 kts | 81° |
| 2026-04-21 08:19 | 50.66291 | -3.89957 | 3674 ft | 178 kts | 82° |
| 2026-04-21 08:19 | 50.66484 | -3.88138 | 3530 ft | 175 kts | 82° |
| 2026-04-21 08:20 | 50.66682 | -3.86339 | 3388 ft | 173 kts | 82° |
| 2026-04-21 08:20 | 50.66867 | -3.84639 | 3256 ft | 172 kts | 81° |
| 2026-04-21 08:20 | 50.67057 | -3.82870 | 3114 ft | 172 kts | 82° |
| 2026-04-21 08:20 | 50.67252 | -3.81062 | 2965 ft | 171 kts | 82° |
| 2026-04-21 08:21 | 50.67464 | -3.79306 | 2819 ft | 170 kts | 79° |
| 2026-04-21 08:21 | 50.67729 | -3.77553 | 2679 ft | 170 kts | 78° |
| 2026-04-21 08:21 | 50.68006 | -3.75835 | 2577 ft | 168 kts | 77° |
| 2026-04-21 08:21 | 50.68283 | -3.74149 | 2522 ft | 161 kts | 77° |
| 2026-04-21 08:22 | 50.68545 | -3.72557 | 2556 ft | 156 kts | 77° |
| 2026-04-21 08:22 | 50.68807 | -3.70953 | 2570 ft | 158 kts | 77° |
| 2026-04-21 08:22 | 50.69067 | -3.69328 | 2558 ft | 159 kts | 77° |
| 2026-04-21 08:22 | 50.69320 | -3.67740 | 2584 ft | 149 kts | 77° |
| 2026-04-21 08:23 | 50.69565 | -3.66199 | 2525 ft | 147 kts | 77° |
| 2026-04-21 08:23 | 50.69800 | -3.64712 | 2499 ft | 142 kts | 77° |
| 2026-04-21 08:23 | 50.70031 | -3.63247 | 2491 ft | 140 kts | 77° |
| 2026-04-21 08:23 | 50.70259 | -3.61790 | 2457 ft | 139 kts | 77° |
| 2026-04-21 08:24 | 50.70488 | -3.60319 | 2305 ft | 141 kts | 78° |
| 2026-04-21 08:24 | 50.70714 | -3.58863 | 2131 ft | 136 kts | 77° |
| 2026-04-21 08:24 | 50.70924 | -3.57496 | 1952 ft | 128 kts | 78° |
| 2026-04-21 08:24 | 50.71124 | -3.56189 | 1802 ft | 125 kts | 77° |
| 2026-04-21 08:25 | 50.71318 | -3.54919 | 1651 ft | 124 kts | 77° |
| 2026-04-21 08:25 | 50.71516 | -3.53642 | 1487 ft | 122 kts | 77° |
| 2026-04-21 08:25 | 50.71706 | -3.52366 | 1333 ft | 123 kts | 76° |
| 2026-04-21 08:25 | 50.71872 | -3.51096 | 1165 ft | 126 kts | 78° |
| 2026-04-21 08:26 | 50.72050 | -3.49724 | 1002 ft | 130 kts | 77° |
| 2026-04-21 08:26 | 50.72269 | -3.48359 | 858 ft | 130 kts | 74° |
| 2026-04-21 08:26 | 50.72495 | -3.46998 | 678 ft | 125 kts | 75° |
| 2026-04-21 08:26 | 50.72716 | -3.45700 | 503 ft | 126 kts | 74° |
| 2026-04-21 08:27 | 50.72934 | -3.44393 | 355 ft | 123 kts | 74° |
| 2026-04-21 08:27 | 50.73153 | -3.43085 | 188 ft | 123 kts | 75° |
| 2026-04-21 08:27 | 50.73340 | -3.41904 | 109 ft | 93 kts | 75° |
| 2026-04-21 08:27 | 50.73464 | -3.41137 | 108 ft | 55 kts | 75° |
| 2026-04-21 08:28 | 50.73504 | -3.40888 | 108 ft | 16 kts | 76° |
| 2026-04-21 08:28 | 50.73537 | -3.40757 | 108 ft | 11 kts | 62° |
| 2026-04-21 08:28 | 50.73525 | -3.40710 | 108 ft | 4 kts | 240° |
| 2026-04-21 08:28 | 50.73519 | -3.40763 | 108 ft | 9 kts | 261° |
| 2026-04-21 08:29 | 50.73507 | -3.40890 | 108 ft | 15 kts | 261° |
| 2026-04-21 08:29 | 50.73456 | -3.41045 | 108 ft | 19 kts | 191° |
| 2026-04-21 08:29 | 50.73318 | -3.41042 | 108 ft | 20 kts | 183° |
| 2026-04-21 08:29 | 50.73226 | -3.41127 | 108 ft | 12 kts | 244° |
| 2026-04-21 08:30 | 50.73208 | -3.41213 | 108 ft | 6 kts | 258° |
| 2026-04-21 08:30 | 50.73202 | -3.41267 | 108 ft | 5 kts | 263° |
| 2026-04-21 08:30 | 50.73202 | -3.41348 | 108 ft | 8 kts | 271° |
| 2026-04-21 08:30 | 50.73204 | -3.41438 | 108 ft | 8 kts | 271° |
| 2026-04-21 08:31 | 50.73205 | -3.41527 | 108 ft | 8 kts | 271° |
| 2026-04-21 08:31 | 50.73211 | -3.41614 | 108 ft | 8 kts | 280° |
| 2026-04-21 08:31 | 50.73214 | -3.41701 | 108 ft | 8 kts | 255° |
| 2026-04-21 08:31 | 50.73189 | -3.41775 | 108 ft | 8 kts | 240° |
| 2026-04-21 08:32 | 50.73174 | -3.41816 | 108 ft | 3 kts | 240° |
| 2026-04-21 08:32 | 50.73163 | -3.41846 | 108 ft | 3 kts | 240° |
| 2026-04-21 08:32 | 50.73150 | -3.41880 | 108 ft | 4 kts | 232° |
| 2026-04-21 08:32 | 50.73128 | -3.41872 | 108 ft | 4 kts | 143° |
| 2026-04-21 08:33 | 50.73108 | -3.41841 | 108 ft | 4 kts | 132° |
| 2026-04-21 08:33 | 50.73099 | -3.41825 | 108 ft | 2 kts | 131° |
| 2026-04-21 08:33 | 50.73093 | -3.41814 | 108 ft | 0 kts | 131° |